Saint Louis, MO (63123)

10:10 AM CDT on October 30, 2014 (GMT -0500)
South County | Change Station
CLOSE
Current Station
Personal Weather Station
Location: Affton, MO
Elevation: 480 ft
Nearby Weather Stations
Active Advisory: Freeze Watch

Elev 480 ft 38.55 °N, 90.32 °W | Updated 1 second ago

Partly Cloudy
Partly Cloudy
48.4 °F
Feels Like 48 °F
N
0.0
Wind Variable Wind from South
Gusts 1.0 mph

Today
High -- | Low -- °F
--% Chance of Precip.
Yesterday
High -- | Low -- °F
Precip. -- in
7:25 AM 6:03 PM
Waxing Crescent, 44% visible
Pressure 30.16 in
Visibility 10.0 miles
Clouds Mostly Cloudy 9500 ft
Mostly Cloudy 20000 ft
Windchill 48 °F
Dew Point 42 °F
Humidity 79%
Rainfall 0.00 in
Snow Depth Not available.
UV 1 out of 12
Pollen 1.70 out of 12
Air Quality Not available.
Flu Activity Not available.
METAR KSTL 301451Z 18005KT 10SM BKN095 BKN200 09/03 A3015 RMK AO2 SLP211 T00940028 55002

More Conditions Fewer Conditions

Pressure 30.16 in
Visibility 10.0 miles
Clouds Mostly Cloudy 9500 ft
Mostly Cloudy 20000 ft
Windchill 48 °F
Dew Point 42 °F
Humidity 79%
Rainfall 0.00 in
Snow Depth Not available.
UV 1 out of 12
Pollen 1.70 out of 12
Air Quality Not available.
Flu Activity Not available.
METAR KSTL 301451Z 18005KT 10SM BKN095 BKN200 09/03 A3015 RMK AO2 SLP211 T00940028 55002

More Conditions Fewer Conditions

10-Day Weather Forecast

Almanac

Astronomy

Oct. 30, 2014 Rise Set
Actual Time
Civil Twilight
Nautical Twilight
Astronomical Twilight
Moon
Length of Visible Light
Length of Day
Tomorrow will be .
, % of the Moon is Illuminated

Today's Extremes

State Highs State Lows

Community

WunderPhotos

Upload Photos

1,766,387 photos uploaded!

WunderBlogs® & News

Nearby

Air Quality

  Air Quality AQ Index Pollutant
Not available.

Snow Depth

Station Depth Elevation

Earthquake Activity

City Distance Mag. Time & Date
Minimum magnitude displayed is 2.5.

Coastal Water Temperatures

Place Temperature

Nearby Weather Stations